createdAt,value
2022-08-27T00:01:25.755Z,10.75
2022-08-27T00:03:58.060Z,11.07
2022-08-27T00:08:55.763Z,11.57
2022-08-27T00:11:25.139Z,9.57
2022-08-27T00:13:53.818Z,17.05
2022-08-27T00:16:22.000Z,16.75
2022-08-27T00:18:50.913Z,11.48
2022-08-27T00:21:19.499Z,8.60
2022-08-27T00:23:47.894Z,17.55
2022-08-27T00:26:17.497Z,11.85
2022-08-27T00:28:46.290Z,8.38
2022-08-27T00:31:15.047Z,13.60
2022-08-27T00:33:43.402Z,11.63
2022-08-27T00:36:13.328Z,12.07
2022-08-27T00:38:42.465Z,10.50
2022-08-27T00:41:13.545Z,9.77
2022-08-27T00:43:57.850Z,9.98
2022-08-27T00:46:53.057Z,12.55
2022-08-27T00:49:36.242Z,12.85
2022-08-27T00:52:17.532Z,12.95
2022-08-27T00:54:46.406Z,11.75
2022-08-27T00:57:15.779Z,13.40
2022-08-27T00:59:45.530Z,11.32
2022-08-27T01:02:14.042Z,13.02
2022-08-27T01:04:44.899Z,12.25
2022-08-27T01:07:13.788Z,11.57
2022-08-27T01:09:43.743Z,13.43
2022-08-27T01:12:12.398Z,9.48
2022-08-27T01:14:41.236Z,12.18
2022-08-27T01:17:11.244Z,11.15
2022-08-27T01:19:56.085Z,11.82
2022-08-27T01:22:36.718Z,11.77
2022-08-27T01:25:14.949Z,9.48
2022-08-27T01:27:44.224Z,13.65
2022-08-27T01:30:15.829Z,11.15
2022-08-27T01:32:44.857Z,10.13
2022-08-27T01:35:15.172Z,12.85
2022-08-27T01:37:46.839Z,10.70
2022-08-27T01:40:16.994Z,11.40
2022-08-27T01:42:50.896Z,10.50
2022-08-27T01:45:23.882Z,12.60
2022-08-27T01:47:52.896Z,11.05
2022-08-27T01:50:28.779Z,11.57
2022-08-27T01:52:57.971Z,15.68
2022-08-27T01:55:28.208Z,11.80
2022-08-27T01:57:56.690Z,9.25
2022-08-27T02:00:34.616Z,10.13
2022-08-27T02:03:03.924Z,8.43
2022-08-27T02:05:32.138Z,16.27
2022-08-27T02:08:14.986Z,13.65
2022-08-27T02:10:44.834Z,12.73
2022-08-27T02:13:13.656Z,14.25
2022-08-27T02:15:43.782Z,14.55
2022-08-27T02:18:12.857Z,11.52
2022-08-27T02:20:42.221Z,11.60
2022-08-27T02:23:10.790Z,12.00
2022-08-27T02:25:39.362Z,17.05
2022-08-27T02:28:10.140Z,26.05
2022-08-27T02:30:38.591Z,23.30
2022-08-27T02:33:06.936Z,20.42
2022-08-27T02:35:37.323Z,21.05
2022-08-27T02:38:06.241Z,16.45
2022-08-27T02:40:34.534Z,12.68
2022-08-27T02:43:02.801Z,12.98
2022-08-27T02:45:31.086Z,13.98
2022-08-27T02:47:59.267Z,14.50
2022-08-27T02:50:27.702Z,17.05
2022-08-27T02:52:56.085Z,13.40
2022-08-27T02:55:24.335Z,18.58
2022-08-27T02:57:52.559Z,22.67
2022-08-27T03:00:22.945Z,18.13
2022-08-27T03:02:52.160Z,20.13
2022-08-27T03:05:20.804Z,21.73
2022-08-27T03:07:49.005Z,18.27
2022-08-27T03:10:20.102Z,19.10
2022-08-27T03:12:49.062Z,23.50
2022-08-27T03:15:19.550Z,29.60
2022-08-27T03:17:48.692Z,26.70
2022-08-27T03:20:17.106Z,31.88
2022-08-27T03:22:45.644Z,16.17
2022-08-27T03:25:14.210Z,16.52
2022-08-27T03:27:43.031Z,17.83
2022-08-27T03:30:14.909Z,16.98
2022-08-27T03:32:43.431Z,18.67
2022-08-27T03:35:13.222Z,32.20
2022-08-27T03:37:41.667Z,31.20
2022-08-27T03:40:10.567Z,40.35
2022-08-27T03:42:39.289Z,35.25
2022-08-27T03:45:08.849Z,46.00
2022-08-27T03:47:38.370Z,54.35
2022-08-27T03:50:08.724Z,47.55
2022-08-27T03:52:37.978Z,51.33
2022-08-27T03:55:08.475Z,50.90
2022-08-27T03:57:37.431Z,50.42
2022-08-27T04:00:08.495Z,54.63
2022-08-27T04:02:40.951Z,47.63
2022-08-27T04:05:12.090Z,34.78
2022-08-27T04:07:44.274Z,35.17
2022-08-27T04:12:41.654Z,39.58
2022-08-27T04:15:11.815Z,37.85
2022-08-27T04:17:41.162Z,45.40
2022-08-27T04:20:34.152Z,36.33
2022-08-27T04:22:59.045Z,33.88
2022-08-27T04:25:27.269Z,39.55
2022-08-27T04:27:55.671Z,32.22
2022-08-27T04:30:23.864Z,23.80
2022-08-27T04:32:52.095Z,20.98
2022-08-27T04:35:20.476Z,25.35
2022-08-27T04:37:48.620Z,20.83
2022-08-27T04:40:17.174Z,23.15
2022-08-27T04:42:45.405Z,25.30
2022-08-27T04:45:13.496Z,23.17
2022-08-27T04:47:41.808Z,24.23
2022-08-27T04:50:10.267Z,25.13
2022-08-27T04:52:41.089Z,23.10
2022-08-27T04:55:10.459Z,23.17
2022-08-27T04:57:38.726Z,20.88
2022-08-27T05:00:07.552Z,18.83
2022-08-27T05:02:35.914Z,16.02
2022-08-27T05:05:04.249Z,16.95
2022-08-27T05:07:32.625Z,23.40
2022-08-27T05:10:00.702Z,15.77
2022-08-27T05:12:28.984Z,15.02
2022-08-27T05:14:57.150Z,24.50
2022-08-27T05:17:25.323Z,21.70
2022-08-27T05:19:53.519Z,16.45
2022-08-27T05:22:21.713Z,19.27
2022-08-27T05:24:50.635Z,15.85
2022-08-27T05:27:18.812Z,20.10
2022-08-27T05:29:46.975Z,16.83
2022-08-27T05:32:15.248Z,24.45
2022-08-27T05:34:43.509Z,26.48
2022-08-27T05:37:11.606Z,25.83
2022-08-27T05:39:40.044Z,22.08
2022-08-27T05:42:08.321Z,34.30
2022-08-27T05:44:40.895Z,29.13
2022-08-27T05:47:10.325Z,39.88
2022-08-27T05:49:38.627Z,30.63
2022-08-27T05:52:53.739Z,35.45
2022-08-27T05:55:21.983Z,30.75
2022-08-27T05:57:50.766Z,26.10
2022-08-27T06:00:19.086Z,12.80
2022-08-27T06:02:47.288Z,6.90
2022-08-27T06:05:15.788Z,8.88
2022-08-27T06:07:43.992Z,12.90
2022-08-27T06:10:13.658Z,11.52
2022-08-27T06:12:42.146Z,14.32
2022-08-27T06:15:10.728Z,9.25
2022-08-27T06:17:39.120Z,8.35
2022-08-27T06:20:07.646Z,11.20
2022-08-27T06:22:35.862Z,8.57
2022-08-27T06:25:05.016Z,12.55
2022-08-27T06:29:20.705Z,19.55
2022-08-27T06:31:48.986Z,17.70
2022-08-27T06:34:17.193Z,24.90
2022-08-27T06:36:45.650Z,23.70
2022-08-27T06:39:14.072Z,15.70
2022-08-27T06:41:43.997Z,22.13
2022-08-27T06:44:14.397Z,18.45
2022-08-27T06:46:43.949Z,17.15
2022-08-27T06:49:13.676Z,17.30
2022-08-27T06:51:46.097Z,26.02
2022-08-27T06:54:15.221Z,17.63
2022-08-27T06:56:44.743Z,17.92
2022-08-27T06:59:16.001Z,19.70
2022-08-27T07:01:47.305Z,18.10
2022-08-27T07:04:20.943Z,16.50
2022-08-27T07:06:49.740Z,19.15
2022-08-27T07:09:18.171Z,22.63
2022-08-27T07:11:46.665Z,21.10
2022-08-27T07:14:14.848Z,23.45
2022-08-27T07:16:43.171Z,21.25
2022-08-27T07:19:13.628Z,23.15
2022-08-27T07:21:41.976Z,38.25
2022-08-27T07:24:10.718Z,47.20
2022-08-27T07:26:42.426Z,40.85
2022-08-27T07:29:13.544Z,42.85
2022-08-27T07:31:42.644Z,38.13
2022-08-27T07:34:10.911Z,29.27
2022-08-27T07:36:39.417Z,33.80
2022-08-27T07:39:08.561Z,39.63
2022-08-27T07:41:37.199Z,25.52
2022-08-27T07:44:05.596Z,20.40
2022-08-27T07:46:37.989Z,24.42
2022-08-27T07:49:08.063Z,23.50
2022-08-27T07:51:36.371Z,24.58
2022-08-27T07:54:04.640Z,15.45
2022-08-27T07:56:32.833Z,23.48
2022-08-27T07:59:01.273Z,13.20
2022-08-27T08:01:30.535Z,15.68
2022-08-27T08:03:58.903Z,19.05
2022-08-27T08:06:27.947Z,29.80
2022-08-27T08:08:56.296Z,22.00
2022-08-27T08:11:24.505Z,21.50
2022-08-27T08:13:52.838Z,16.33
2022-08-27T08:16:26.276Z,21.92
2022-08-27T08:18:57.998Z,18.45
2022-08-27T08:21:26.791Z,11.32
2022-08-27T08:23:55.054Z,9.35
2022-08-27T08:26:23.466Z,13.10
2022-08-27T08:28:51.897Z,15.82
2022-08-27T08:31:20.416Z,16.15
2022-08-27T08:33:48.570Z,17.48
2022-08-27T08:36:18.471Z,16.75
2022-08-27T08:38:47.625Z,12.65
2022-08-27T08:41:39.068Z,15.13
2022-08-27T08:44:33.538Z,9.68
2022-08-27T08:47:45.029Z,11.68
2022-08-27T08:50:58.286Z,10.50
2022-08-27T08:54:00.447Z,6.93
2022-08-27T08:56:35.601Z,11.40
2022-08-27T08:59:34.013Z,9.15
2022-08-27T09:02:02.867Z,4.88
2022-08-27T09:04:31.670Z,3.83
2022-08-27T09:07:32.873Z,6.32
2022-08-27T09:10:33.447Z,5.18
2022-08-27T09:13:05.904Z,10.18
2022-08-27T09:15:38.283Z,8.05
2022-08-27T09:18:14.161Z,9.45
2022-08-27T09:20:48.354Z,4.25
2022-08-27T09:23:31.739Z,6.45
2022-08-27T09:26:00.273Z,5.53
2022-08-27T09:28:30.358Z,5.32
2022-08-27T09:31:06.351Z,8.32
2022-08-27T09:33:44.619Z,10.38
2022-08-27T09:36:23.953Z,7.03
2022-08-27T09:38:58.929Z,6.07
2022-08-27T09:41:31.113Z,10.35
2022-08-27T09:44:09.211Z,8.82
2022-08-27T09:46:37.651Z,10.55
2022-08-27T09:49:17.146Z,8.88
2022-08-27T09:51:48.113Z,7.97
2022-08-27T09:54:43.059Z,8.35
2022-08-27T09:57:13.240Z,17.13
2022-08-27T09:59:51.756Z,8.88
2022-08-27T10:02:23.123Z,16.67
2022-08-27T10:04:54.459Z,10.38
2022-08-27T10:07:59.456Z,19.67
2022-08-27T10:11:01.220Z,8.55
2022-08-27T10:13:34.678Z,10.95
2022-08-27T10:16:24.654Z,12.02
2022-08-27T10:19:14.845Z,9.85
2022-08-27T10:21:56.851Z,5.82
2022-08-27T10:25:15.274Z,9.05
2022-08-27T10:27:49.808Z,4.97
2022-08-27T10:30:22.634Z,10.23
2022-08-27T10:32:56.897Z,14.57
2022-08-27T10:35:32.416Z,10.68
2022-08-27T10:38:40.051Z,11.23
2022-08-27T10:41:30.237Z,45.45
2022-08-27T10:44:04.308Z,12.98
2022-08-27T10:46:54.048Z,8.73
2022-08-27T10:49:40.635Z,10.07
2022-08-27T10:52:22.293Z,9.70
2022-08-27T10:54:56.674Z,6.50
2022-08-27T10:57:56.488Z,12.35
2022-08-27T11:00:48.654Z,12.35
2022-08-27T11:03:59.064Z,9.95
2022-08-27T11:06:37.841Z,8.45
2022-08-27T11:09:15.435Z,9.93
2022-08-27T11:14:46.239Z,7.03
2022-08-27T11:17:23.876Z,7.43
2022-08-27T11:20:12.303Z,12.77
2022-08-27T11:22:54.999Z,10.77
2022-08-27T11:25:23.517Z,8.27
2022-08-27T11:27:54.312Z,18.98
2022-08-27T11:30:59.814Z,14.07
2022-08-27T11:33:46.112Z,15.38
2022-08-27T11:36:31.125Z,15.48
2022-08-27T11:39:22.692Z,12.15
2022-08-27T11:42:03.224Z,17.80
2022-08-27T11:44:31.784Z,14.32
2022-08-27T11:47:29.305Z,15.90
2022-08-27T11:50:01.132Z,9.15
2022-08-27T11:52:34.437Z,7.30
2022-08-27T11:55:26.472Z,14.68
2022-08-27T11:58:11.716Z,13.00
2022-08-27T12:00:43.170Z,13.98
2022-08-27T12:03:35.634Z,9.68
2022-08-27T12:08:35.974Z,10.65
2022-08-27T12:11:09.881Z,8.88
2022-08-27T12:13:51.402Z,11.73
2022-08-27T12:16:25.853Z,9.68
2022-08-27T12:18:57.311Z,11.65
2022-08-27T12:22:02.942Z,10.93
2022-08-27T12:24:43.089Z,7.15
2022-08-27T12:27:24.811Z,9.45
2022-08-27T12:30:22.726Z,8.23
2022-08-27T12:32:52.383Z,9.52
2022-08-27T12:35:40.805Z,13.88
2022-08-27T12:38:43.792Z,11.50
2022-08-27T12:41:43.984Z,11.10
2022-08-27T12:44:16.456Z,8.93
2022-08-27T12:46:54.401Z,12.65
2022-08-27T12:49:38.486Z,13.57
2022-08-27T12:52:21.795Z,11.35
2022-08-27T12:55:14.912Z,16.08
2022-08-27T12:58:17.835Z,27.05
2022-08-27T13:01:22.077Z,36.15
2022-08-27T13:03:53.339Z,37.40
2022-08-27T13:06:34.199Z,31.60
2022-08-27T13:09:08.269Z,12.38
2022-08-27T13:11:46.748Z,16.30
2022-08-27T13:14:20.062Z,30.58
2022-08-27T13:17:03.578Z,31.77
2022-08-27T13:19:50.261Z,30.90
2022-08-27T13:22:37.261Z,47.03
2022-08-27T13:25:08.282Z,26.63
2022-08-27T13:27:38.149Z,37.53
2022-08-27T13:30:35.220Z,37.55
2022-08-27T13:33:02.597Z,34.83
2022-08-27T13:35:30.946Z,22.00
2022-08-27T13:38:00.692Z,22.15
2022-08-27T13:40:37.848Z,16.73
2022-08-27T13:43:12.896Z,20.23
2022-08-27T13:45:42.903Z,13.15
2022-08-27T13:48:13.192Z,20.65
2022-08-27T13:50:52.422Z,16.80
2022-08-27T13:53:26.064Z,24.60
2022-08-27T13:55:56.291Z,18.73
2022-08-27T13:58:30.904Z,19.92
2022-08-27T14:01:30.072Z,15.00
2022-08-27T14:04:03.277Z,13.85
2022-08-27T14:06:44.478Z,13.25
2022-08-27T14:09:32.992Z,22.77
2022-08-27T14:12:05.437Z,10.98
2022-08-27T14:14:42.360Z,25.73
2022-08-27T14:17:29.615Z,21.88
2022-08-27T14:20:02.506Z,19.33
2022-08-27T14:22:33.215Z,19.17
2022-08-27T14:25:02.805Z,25.70
2022-08-27T14:27:31.350Z,38.55
2022-08-27T14:30:00.079Z,33.88
2022-08-27T14:32:28.468Z,27.42
2022-08-27T14:34:56.875Z,34.13
2022-08-27T14:37:25.217Z,28.73
2022-08-27T14:39:53.741Z,26.27
2022-08-27T14:42:23.634Z,31.60
2022-08-27T14:44:51.870Z,33.30
2022-08-27T14:47:20.560Z,39.85
2022-08-27T14:49:49.436Z,43.58
2022-08-27T14:52:17.957Z,45.75
2022-08-27T14:54:46.637Z,36.17
2022-08-27T14:57:15.251Z,38.88
2022-08-27T14:59:43.647Z,33.10
2022-08-27T15:02:15.195Z,26.60
2022-08-27T15:04:44.346Z,32.15
2022-08-27T15:07:16.996Z,25.73
2022-08-27T15:09:45.199Z,28.20
2022-08-27T15:12:19.339Z,26.45
2022-08-27T15:14:54.851Z,27.75
2022-08-27T15:17:34.686Z,26.85
2022-08-27T15:20:10.085Z,28.90
2022-08-27T15:22:44.800Z,34.97
2022-08-27T15:25:15.888Z,27.13
2022-08-27T15:27:44.302Z,25.65
2022-08-27T15:30:15.248Z,30.13
2022-08-27T15:32:46.650Z,19.27
2022-08-27T15:35:22.085Z,57.63
2022-08-27T15:37:50.622Z,51.88
2022-08-27T15:43:22.892Z,38.00
2022-08-27T15:45:51.450Z,25.85
2022-08-27T15:48:19.858Z,47.30
2022-08-27T15:50:49.172Z,31.23
2022-08-27T15:53:27.588Z,44.35
2022-08-27T15:55:57.416Z,52.65
2022-08-27T15:58:26.060Z,46.92
2022-08-27T16:01:14.999Z,52.90
2022-08-27T16:05:52.095Z,59.80
2022-08-27T16:08:20.398Z,49.05
2022-08-27T16:10:49.030Z,44.95
2022-08-27T16:13:17.597Z,46.55
2022-08-27T16:15:46.120Z,36.03
2022-08-27T16:18:14.764Z,35.08
2022-08-27T16:20:43.471Z,32.42
2022-08-27T16:23:11.892Z,26.33
2022-08-27T16:25:40.395Z,41.92
2022-08-27T16:28:08.871Z,36.08
2022-08-27T16:30:37.348Z,27.65
2022-08-27T16:33:05.804Z,21.40
2022-08-27T16:35:34.386Z,24.67
2022-08-27T16:38:02.815Z,60.55
2022-08-27T16:40:33.269Z,33.58
2022-08-27T16:43:02.102Z,39.05
2022-08-27T16:45:30.879Z,28.20
2022-08-27T16:48:00.051Z,32.28
2022-08-27T16:50:29.308Z,34.53
2022-08-27T16:52:57.667Z,39.97
2022-08-27T16:55:26.126Z,25.60
2022-08-27T16:57:54.590Z,34.53
2022-08-27T17:00:22.938Z,33.83
2022-08-27T17:02:51.654Z,34.65
2022-08-27T17:05:35.581Z,32.70
2022-08-27T17:08:05.277Z,35.42
2022-08-27T17:10:38.982Z,33.75
2022-08-27T17:13:08.791Z,46.70
2022-08-27T17:15:37.359Z,21.02
2022-08-27T17:18:06.060Z,34.28
2022-08-27T17:20:36.116Z,23.30
2022-08-27T17:23:05.759Z,31.42
2022-08-27T17:25:34.573Z,25.92
2022-08-27T17:28:03.397Z,30.13
2022-08-27T17:30:32.091Z,25.92
2022-08-27T17:33:00.467Z,23.00
2022-08-27T17:35:29.019Z,33.63
2022-08-27T17:37:57.410Z,23.17
2022-08-27T17:40:26.494Z,35.65
2022-08-27T17:42:56.877Z,32.75
2022-08-27T17:45:25.459Z,32.38
2022-08-27T17:47:53.880Z,34.38
2022-08-27T17:50:22.417Z,35.70
2022-08-27T17:52:51.151Z,32.25
2022-08-27T17:55:19.669Z,27.95
2022-08-27T17:57:48.300Z,25.40
2022-08-27T18:00:17.073Z,23.98
2022-08-27T18:02:48.905Z,21.88
2022-08-27T18:05:22.382Z,21.90
2022-08-27T18:07:53.183Z,15.40
2022-08-27T18:10:25.119Z,21.85
2022-08-27T18:12:55.618Z,19.42
2022-08-27T18:15:30.062Z,18.27
2022-08-27T18:17:59.728Z,26.70
2022-08-27T18:20:30.684Z,27.50
2022-08-27T18:23:01.183Z,17.45
2022-08-27T18:25:35.982Z,21.52
2022-08-27T18:28:10.266Z,16.35
2022-08-27T18:30:38.993Z,20.20
2022-08-27T18:33:08.057Z,29.02
2022-08-27T18:35:39.762Z,24.98
2022-08-27T18:38:09.194Z,24.23
2022-08-27T18:40:44.425Z,25.23
2022-08-27T18:43:14.731Z,25.88
2022-08-27T18:45:43.770Z,24.85
2022-08-27T18:48:18.954Z,19.67
2022-08-27T18:50:51.233Z,23.33
2022-08-27T18:55:52.660Z,16.00
2022-08-27T18:58:21.757Z,22.52
2022-08-27T19:00:55.633Z,26.83
2022-08-27T19:03:33.918Z,36.90
2022-08-27T19:06:08.753Z,17.20
2022-08-27T19:08:38.707Z,19.13
2022-08-27T19:11:07.196Z,13.57
2022-08-27T19:13:35.999Z,23.75
2022-08-27T19:16:07.735Z,22.77
2022-08-27T19:18:38.954Z,22.60
2022-08-27T19:21:08.292Z,19.23
2022-08-27T19:23:37.540Z,16.73
2022-08-27T19:26:06.873Z,18.90
2022-08-27T19:28:44.300Z,19.33
2022-08-27T19:31:14.784Z,26.80
2022-08-27T19:33:44.741Z,20.17
2022-08-27T19:36:16.856Z,26.00
2022-08-27T19:38:46.601Z,15.63
2022-08-27T19:41:14.993Z,22.98
2022-08-27T19:43:44.762Z,22.00
2022-08-27T19:46:17.635Z,17.42
2022-08-27T19:48:46.367Z,18.40
2022-08-27T19:51:15.594Z,16.17
2022-08-27T19:53:43.970Z,28.02
2022-08-27T19:56:14.219Z,23.25
2022-08-27T19:58:43.584Z,22.40
2022-08-27T20:01:14.807Z,18.27
2022-08-27T20:03:43.268Z,24.73
2022-08-27T20:06:12.520Z,25.70
2022-08-27T20:08:41.598Z,23.40
2022-08-27T20:11:10.532Z,19.08
2022-08-27T20:13:50.244Z,19.25
2022-08-27T20:16:19.418Z,17.75
2022-08-27T20:18:48.130Z,17.45
2022-08-27T20:21:16.447Z,20.55
2022-08-27T20:23:44.766Z,18.65
2022-08-27T20:26:13.193Z,18.02
2022-08-27T20:28:41.991Z,20.13
2022-08-27T20:31:10.631Z,17.42
2022-08-27T20:33:38.945Z,23.20
2022-08-27T20:36:08.680Z,19.92
2022-08-27T20:38:37.253Z,21.88
2022-08-27T20:41:06.825Z,25.42
2022-08-27T20:43:35.948Z,20.45
2022-08-27T20:46:04.782Z,21.73
2022-08-27T20:48:33.250Z,34.72
2022-08-27T20:51:01.692Z,28.83
2022-08-27T20:53:30.340Z,25.08
2022-08-27T20:55:58.707Z,21.25
2022-08-27T20:58:27.706Z,27.00
2022-08-27T21:00:57.383Z,17.90
2022-08-27T21:03:26.110Z,23.00
2022-08-27T21:05:54.575Z,15.95
2022-08-27T21:08:23.235Z,17.20
2022-08-27T21:10:54.959Z,23.58
2022-08-27T21:13:24.635Z,21.92
2022-08-27T21:15:56.452Z,13.93
2022-08-27T21:18:29.759Z,16.27
2022-08-27T21:21:00.749Z,18.02
2022-08-27T21:23:29.811Z,19.20
2022-08-27T21:26:03.014Z,18.85
2022-08-27T21:28:31.811Z,18.70
2022-08-27T21:31:00.090Z,29.88
2022-08-27T21:33:28.623Z,21.77
2022-08-27T21:35:56.933Z,24.23
2022-08-27T21:38:25.405Z,19.17
2022-08-27T21:40:54.423Z,16.60
2022-08-27T21:43:23.399Z,16.48
2022-08-27T21:45:59.046Z,17.83
2022-08-27T21:48:28.069Z,20.00
2022-08-27T21:50:56.625Z,19.85
2022-08-27T21:53:25.048Z,17.27
2022-08-27T21:55:54.565Z,20.45
2022-08-27T21:58:26.528Z,28.80
2022-08-27T22:03:24.794Z,21.38
2022-08-27T22:05:53.524Z,18.80
2022-08-27T22:08:23.433Z,16.90
2022-08-27T22:10:56.723Z,20.83
2022-08-27T22:13:26.199Z,19.33
2022-08-27T22:15:54.633Z,17.13
2022-08-27T22:18:24.001Z,20.00
2022-08-27T22:20:53.751Z,12.10
2022-08-27T22:23:22.609Z,14.43
2022-08-27T22:25:51.170Z,9.68
2022-08-27T22:28:20.219Z,10.65
2022-08-27T22:30:48.591Z,13.20
2022-08-27T22:33:17.443Z,10.85
2022-08-27T22:35:45.717Z,15.63
2022-08-27T22:38:14.235Z,18.02
2022-08-27T22:40:43.101Z,19.55
2022-08-27T22:43:12.879Z,16.67
2022-08-27T22:45:41.281Z,16.98
2022-08-27T22:48:09.653Z,20.33
2022-08-27T22:50:37.820Z,18.83
2022-08-27T22:53:06.425Z,14.60
2022-08-27T22:55:34.973Z,12.65
2022-08-27T22:58:03.455Z,17.00
2022-08-27T23:00:35.421Z,16.08
2022-08-27T23:03:05.919Z,10.82
2022-08-27T23:05:40.190Z,16.95
2022-08-27T23:08:12.667Z,19.15
2022-08-27T23:10:43.328Z,17.50
2022-08-27T23:13:13.477Z,19.58
2022-08-27T23:15:42.802Z,19.02
2022-08-27T23:18:11.831Z,24.98
2022-08-27T23:20:40.439Z,16.35
2022-08-27T23:23:08.943Z,16.02
2022-08-27T23:25:37.627Z,20.75
2022-08-27T23:28:13.507Z,21.88
2022-08-27T23:30:44.479Z,19.50
2022-08-27T23:33:14.142Z,27.73
2022-08-27T23:35:42.918Z,19.48
2022-08-27T23:38:12.053Z,28.27
2022-08-27T23:40:40.593Z,24.17
2022-08-27T23:43:09.509Z,22.95
2022-08-27T23:45:40.694Z,28.73
2022-08-27T23:48:09.683Z,26.37
2022-08-27T23:50:38.305Z,20.17
2022-08-27T23:53:07.373Z,17.20
2022-08-27T23:55:36.028Z,11.07
2022-08-27T23:58:04.684Z,11.85
